Time;durP1;ratioP1;P1;durP2;ratioP2;P2;SDS_P1;SDS_P2;PMS_P1;PMS_P2;Temp;Humidity;BMP_temperature;BMP_pressure;BME280_temperature;BME280_humidity;BME280_pressure;Samples;Min_cycle;Max_cycle;Signal;HPM_P1;HPM_P2
2023/08/02 00:00:11;;;;;;;8.43;2.07;;;;;;;;;;5071326;28;20731;-52
2023/08/02 00:02:37;;;;;;;5.07;2.37;;;;;;;;;;5070996;28;20259;-52
2023/08/02 00:05:03;;;;;;;4.27;2.20;;;;;;;;;;5073441;28;20227;-53
2023/08/02 00:07:30;;;;;;;4.40;1.90;;;;;;;;;;5074480;28;20200;-52
2023/08/02 00:09:57;;;;;;;3.20;2.10;;;;;;;;;;5074571;28;20632;-52
2023/08/02 00:12:23;;;;;;;5.20;2.20;;;;;;;;;;5072538;28;20257;-53
2023/08/02 00:14:49;;;;;;;3.90;1.87;;;;;;;;;;5072975;28;20862;-54
2023/08/02 00:17:15;;;;;;;7.37;2.30;;;;;;;;;;5074254;28;20252;-54
2023/08/02 00:19:41;;;;;;;3.53;2.10;;;;;;;;;;5074223;28;20223;-54
2023/08/02 00:22:07;;;;;;;5.73;2.97;;;;;;;;;;5074246;28;20234;-54
2023/08/02 00:24:34;;;;;;;4.20;2.00;;;;;;;;;;5073816;28;20250;-55
2023/08/02 00:27:00;;;;;;;5.40;2.30;;;;;;;;;;5074129;28;20200;-54
2023/08/02 00:29:26;;;;;;;9.20;2.53;;;;;;;;;;5073849;28;20303;-54
2023/08/02 00:31:52;;;;;;;6.43;2.73;;;;;;;;;;5073915;28;20188;-54
2023/08/02 00:34:18;;;;;;;4.03;1.90;;;;;;;;;;5073752;28;20196;-54
2023/08/02 00:36:44;;;;;;;4.50;2.03;;;;;;;;;;5073578;28;20195;-54
2023/08/02 00:39:10;;;;;;;7.73;2.37;;;;;;;;;;5073685;28;20235;-54
2023/08/02 00:41:37;;;;;;;4.17;2.17;;;;;;;;;;5073301;28;20207;-54
2023/08/02 00:44:03;;;;;;;6.27;2.40;;;;;;;;;;5073540;28;20453;-54
2023/08/02 00:46:29;;;;;;;4.77;2.23;;;;;;;;;;5073330;28;20200;-54
2023/08/02 00:48:55;;;;;;;5.53;2.60;;;;;;;;;;5073444;28;20195;-54
2023/08/02 00:51:21;;;;;;;6.37;2.60;;;;;;;;;;5073367;28;20206;-54
2023/08/02 00:53:47;;;;;;;5.63;2.20;;;;;;;;;;5073252;28;20225;-54
2023/08/02 00:56:15;;;;;;;4.60;2.33;;;;;;;;;;5072920;28;20669;-54
2023/08/02 00:58:43;;;;;;;4.33;2.43;;;;;;;;;;5073320;28;20195;-54
2023/08/02 01:01:12;;;;;;;6.90;2.87;;;;;;;;;;5073400;28;20279;-54
2023/08/02 01:03:40;;;;;;;5.90;2.53;;;;;;;;;;5072960;28;20262;-54
2023/08/02 01:06:10;;;;;;;4.80;2.30;;;;;;;;;;5073234;28;20219;-54
2023/08/02 01:08:39;;;;;;;5.90;2.27;;;;;;;;;;5072946;28;20257;-55
2023/08/02 01:11:09;;;;;;;4.97;2.17;;;;;;;;;;5073093;28;20609;-54
2023/08/02 01:13:36;;;;;;;4.50;2.50;;;;;;;;;;5073111;28;20200;-54
2023/08/02 01:16:04;;;;;;;6.17;2.50;;;;;;;;;;5072751;28;20241;-54
2023/08/02 01:18:30;;;;;;;5.03;2.33;;;;;;;;;;5072804;28;20207;-54
2023/08/02 01:20:57;;;;;;;4.80;2.10;;;;;;;;;;5073033;28;20192;-54
2023/08/02 01:23:23;;;;;;;3.70;2.37;;;;;;;;;;5072635;28;20705;-54
2023/08/02 01:25:50;;;;;;;6.60;2.50;;;;;;;;;;5072858;28;20215;-54
2023/08/02 01:28:18;;;;;;;4.57;2.33;;;;;;;;;;5072688;28;20275;-55
2023/08/02 01:30:44;;;;;;;8.77;2.83;;;;;;;;;;5072705;28;20190;-54
2023/08/02 01:33:10;;;;;;;6.03;2.60;;;;;;;;;;5072786;28;20193;-54
2023/08/02 01:35:37;;;;;;;5.00;2.20;;;;;;;;;;5072610;28;20203;-54
2023/08/02 01:38:04;;;;;;;4.80;2.60;;;;;;;;;;5072563;28;20242;-55
2023/08/02 01:40:31;;;;;;;8.63;2.97;;;;;;;;;;5072335;28;20236;-55
2023/08/02 01:42:57;;;;;;;5.20;2.67;;;;;;;;;;5072546;28;20223;-54
2023/08/02 01:45:23;;;;;;;6.57;2.90;;;;;;;;;;5072254;28;20196;-54
2023/08/02 01:47:51;;;;;;;6.23;2.30;;;;;;;;;;5070672;28;20406;-54
2023/08/02 01:50:17;;;;;;;5.50;2.40;;;;;;;;;;5072125;28;20206;-54
2023/08/02 01:52:43;;;;;;;8.60;2.27;;;;;;;;;;5072189;28;20200;-54
2023/08/02 01:55:10;;;;;;;4.70;2.30;;;;;;;;;;5071869;28;20813;-55
2023/08/02 01:57:36;;;;;;;4.23;2.30;;;;;;;;;;5071915;28;20224;-54
2023/08/02 02:00:03;;;;;;;7.70;2.50;;;;;;;;;;5071822;28;20689;-54
2023/08/02 02:02:28;;;;;;;5.37;2.87;;;;;;;;;;5071834;28;20239;-54
2023/08/02 02:04:55;;;;;;;6.63;2.80;;;;;;;;;;5071992;28;20231;-54
2023/08/02 02:07:21;;;;;;;6.90;2.60;;;;;;;;;;5071889;28;20247;-54
2023/08/02 02:09:47;;;;;;;9.10;2.70;;;;;;;;;;5071845;28;20197;-54
2023/08/02 02:12:14;;;;;;;5.90;2.77;;;;;;;;;;5071971;28;20208;-54
2023/08/02 02:14:40;;;;;;;5.93;2.53;;;;;;;;;;5071693;28;20572;-54
2023/08/02 02:17:06;;;;;;;5.10;2.63;;;;;;;;;;5071714;28;20294;-54
2023/08/02 02:19:32;;;;;;;3.77;2.30;;;;;;;;;;5071684;28;20200;-54
2023/08/02 02:21:58;;;;;;;5.40;2.63;;;;;;;;;;5071712;28;20219;-54
2023/08/02 02:24:24;;;;;;;3.30;2.40;;;;;;;;;;5071554;28;20631;-54
2023/08/02 02:26:50;;;;;;;6.47;2.73;;;;;;;;;;5071080;28;20204;-54
2023/08/02 02:29:17;;;;;;;7.97;2.60;;;;;;;;;;5071646;28;20199;-54
2023/08/02 02:31:43;;;;;;;6.67;2.40;;;;;;;;;;5071539;28;20684;-54
2023/08/02 02:34:09;;;;;;;5.90;2.80;;;;;;;;;;5071692;28;20291;-54
2023/08/02 02:36:35;;;;;;;8.33;2.83;;;;;;;;;;5071441;28;20197;-54
2023/08/02 02:39:01;;;;;;;4.90;2.60;;;;;;;;;;5071289;28;20231;-54
2023/08/02 02:41:27;;;;;;;4.57;2.63;;;;;;;;;;5071592;28;20233;-55
2023/08/02 02:43:53;;;;;;;2.70;2.43;;;;;;;;;;5071420;28;20763;-54
2023/08/02 02:46:21;;;;;;;5.83;3.00;;;;;;;;;;5071469;28;20279;-54
2023/08/02 02:48:47;;;;;;;5.30;2.60;;;;;;;;;;5071358;28;20207;-54
2023/08/02 02:51:13;;;;;;;6.10;2.90;;;;;;;;;;5071496;28;20204;-54
2023/08/02 02:53:39;;;;;;;7.43;3.17;;;;;;;;;;5071267;28;20200;-54
2023/08/02 02:56:05;;;;;;;6.13;2.83;;;;;;;;;;5071358;28;20191;-54
2023/08/02 02:58:31;;;;;;;5.70;3.30;;;;;;;;;;5071088;28;20615;-55
2023/08/02 03:00:57;;;;;;;7.33;3.00;;;;;;;;;;5071348;28;20195;-55
2023/08/02 03:03:25;;;;;;;6.23;2.77;;;;;;;;;;5071315;28;20224;-55
2023/08/02 03:05:53;;;;;;;6.00;2.73;;;;;;;;;;5069849;28;20572;-55
2023/08/02 03:08:19;;;;;;;3.90;2.70;;;;;;;;;;5071283;28;20194;-55
2023/08/02 03:10:45;;;;;;;6.10;3.00;;;;;;;;;;5071309;28;20278;-55
2023/08/02 03:13:11;;;;;;;4.80;3.07;;;;;;;;;;5071292;28;20307;-55
2023/08/02 03:15:37;;;;;;;5.23;2.87;;;;;;;;;;5070883;28;20200;-54
2023/08/02 03:18:03;;;;;;;5.17;2.63;;;;;;;;;;5071221;28;20287;-55
2023/08/02 03:20:30;;;;;;;5.37;2.80;;;;;;;;;;5071085;28;20196;-55
2023/08/02 03:22:56;;;;;;;6.87;2.80;;;;;;;;;;5071010;28;20302;-55
2023/08/02 03:25:22;;;;;;;5.43;2.73;;;;;;;;;;5070987;28;20303;-55
2023/08/02 03:27:48;;;;;;;5.20;2.77;;;;;;;;;;5071063;28;20197;-55
2023/08/02 03:30:14;;;;;;;7.03;2.87;;;;;;;;;;5070927;28;20203;-54
2023/08/02 03:32:40;;;;;;;8.13;2.93;;;;;;;;;;5071214;28;20654;-55
2023/08/02 03:35:06;;;;;;;8.10;3.10;;;;;;;;;;5070979;28;20654;-55
2023/08/02 03:37:34;;;;;;;4.93;2.93;;;;;;;;;;5070893;28;20286;-55
2023/08/02 03:40:00;;;;;;;7.67;2.97;;;;;;;;;;5073534;28;20331;-54
2023/08/02 03:42:26;;;;;;;7.03;3.00;;;;;;;;;;5074620;28;20251;-55
2023/08/02 03:44:52;;;;;;;7.47;3.20;;;;;;;;;;5074569;28;20219;-54
2023/08/02 03:47:18;;;;;;;6.67;3.30;;;;;;;;;;5074632;28;20681;-55
2023/08/02 03:49:44;;;;;;;4.23;3.30;;;;;;;;;;5074378;28;20206;-55
2023/08/02 03:52:10;;;;;;;8.67;3.40;;;;;;;;;;5074440;28;20191;-55
2023/08/02 03:54:37;;;;;;;7.60;3.33;;;;;;;;;;5073982;28;20302;-55
2023/08/02 03:57:03;;;;;;;5.80;2.87;;;;;;;;;;5074494;28;20294;-55
2023/08/02 03:59:29;;;;;;;6.03;3.23;;;;;;;;;;5073959;28;20195;-55
2023/08/02 04:01:55;;;;;;;8.13;3.20;;;;;;;;;;5074408;28;20196;-55
2023/08/02 04:04:21;;;;;;;6.63;2.93;;;;;;;;;;5074443;28;20196;-55
2023/08/02 04:06:47;;;;;;;7.90;3.30;;;;;;;;;;5074080;28;20203;-55
2023/08/02 04:09:13;;;;;;;5.10;3.17;;;;;;;;;;5074252;28;20192;-55
2023/08/02 04:11:41;;;;;;;7.33;3.43;;;;;;;;;;5074016;28;20648;-55
2023/08/02 04:14:07;;;;;;;7.33;3.20;;;;;;;;;;5073963;28;20210;-55
2023/08/02 04:16:33;;;;;;;8.10;3.77;;;;;;;;;;5073431;28;20275;-55
2023/08/02 04:18:59;;;;;;;5.60;3.33;;;;;;;;;;5074097;28;20196;-55
2023/08/02 04:21:25;;;;;;;6.83;3.13;;;;;;;;;;5073924;28;20669;-54
2023/08/02 04:23:51;;;;;;;6.77;2.77;;;;;;;;;;5073796;28;20294;-54
2023/08/02 04:26:17;;;;;;;6.47;3.27;;;;;;;;;;5073550;28;20618;-55
2023/08/02 04:28:45;;;;;;;5.30;3.00;;;;;;;;;;5073734;28;20204;-54
2023/08/02 04:31:11;;;;;;;8.53;2.93;;;;;;;;;;5073826;28;20207;-54
2023/08/02 04:33:37;;;;;;;6.33;3.13;;;;;;;;;;5073628;28;20200;-54
2023/08/02 04:36:03;;;;;;;5.07;3.50;;;;;;;;;;5073575;28;20206;-55
2023/08/02 04:38:29;;;;;;;9.37;3.40;;;;;;;;;;5073366;28;20544;-55
2023/08/02 04:40:56;;;;;;;7.50;3.43;;;;;;;;;;5073767;28;20196;-55
2023/08/02 04:43:22;;;;;;;8.27;3.23;;;;;;;;;;5073482;28;20623;-55
2023/08/02 04:45:50;;;;;;;9.77;3.10;;;;;;;;;;5073336;28;20734;-55
2023/08/02 04:48:16;;;;;;;7.83;3.00;;;;;;;;;;5073522;28;20207;-55
2023/08/02 04:50:43;;;;;;;3.77;2.80;;;;;;;;;;5073026;28;20227;-55
2023/08/02 04:53:09;;;;;;;7.00;2.90;;;;;;;;;;5073523;28;20206;-55
2023/08/02 04:55:41;;;;;;;6.03;2.90;;;;;;;;;;5073281;28;20246;-55
2023/08/02 04:58:07;;;;;;;7.37;3.00;;;;;;;;;;5073318;28;20566;-55
2023/08/02 05:00:33;;;;;;;8.40;2.97;;;;;;;;;;5073144;28;20295;-55
2023/08/02 05:03:00;;;;;;;6.77;2.60;;;;;;;;;;5073209;28;20227;-55
2023/08/02 05:05:26;;;;;;;4.77;2.70;;;;;;;;;;5073451;28;20203;-55
2023/08/02 05:07:52;;;;;;;6.40;3.00;;;;;;;;;;5073152;28;20761;-55
2023/08/02 05:10:18;;;;;;;9.80;3.00;;;;;;;;;;5073161;28;20196;-54
2023/08/02 05:12:44;;;;;;;7.63;2.93;;;;;;;;;;5072820;28;20199;-55
2023/08/02 05:15:10;;;;;;;7.50;3.67;;;;;;;;;;5073030;28;20199;-55
2023/08/02 05:17:37;;;;;;;6.80;2.93;;;;;;;;;;5072810;28;20200;-55
2023/08/02 05:20:05;;;;;;;8.40;2.87;;;;;;;;;;5073002;28;20195;-55
2023/08/02 05:22:31;;;;;;;6.20;3.00;;;;;;;;;;5072689;28;20230;-55
2023/08/02 05:24:58;;;;;;;6.53;2.83;;;;;;;;;;5072845;28;20207;-54
2023/08/02 05:27:24;;;;;;;8.47;3.10;;;;;;;;;;5072729;28;20560;-54
2023/08/02 05:29:51;;;;;;;5.83;2.63;;;;;;;;;;5072649;28;20208;-55
2023/08/02 05:32:17;;;;;;;7.13;2.93;;;;;;;;;;5072716;28;20203;-55
2023/08/02 05:34:43;;;;;;;7.27;3.07;;;;;;;;;;5072522;28;20192;-54
2023/08/02 05:37:12;;;;;;;9.23;3.50;;;;;;;;;;5072516;28;20188;-54
2023/08/02 05:39:38;;;;;;;6.00;2.70;;;;;;;;;;5072271;28;20250;-54
2023/08/02 05:42:04;;;;;;;5.57;3.17;;;;;;;;;;5072353;28;20295;-56
2023/08/02 05:44:31;;;;;;;5.77;2.93;;;;;;;;;;5072165;28;20203;-55
2023/08/02 05:46:57;;;;;;;6.03;3.13;;;;;;;;;;5072279;28;20199;-56
2023/08/02 05:49:23;;;;;;;7.60;2.90;;;;;;;;;;5072233;28;20219;-55
2023/08/02 05:51:49;;;;;;;5.53;2.60;;;;;;;;;;5072107;28;20204;-55
2023/08/02 05:54:17;;;;;;;6.63;3.10;;;;;;;;;;5072099;28;20195;-55
2023/08/02 05:56:43;;;;;;;4.90;2.83;;;;;;;;;;5072285;28;20214;-55
2023/08/02 05:59:09;;;;;;;5.13;2.73;;;;;;;;;;5071920;28;20679;-55
2023/08/02 06:01:35;;;;;;;4.80;3.13;;;;;;;;;;5071224;28;20242;-55
2023/08/02 06:04:01;;;;;;;4.23;2.60;;;;;;;;;;5071861;28;20253;-55
2023/08/02 06:06:27;;;;;;;5.70;2.80;;;;;;;;;;5072047;28;20199;-55
2023/08/02 06:08:53;;;;;;;4.47;2.50;;;;;;;;;;5071856;28;20254;-55
2023/08/02 06:11:20;;;;;;;4.70;2.93;;;;;;;;;;5071822;28;20197;-55
2023/08/02 06:13:46;;;;;;;5.00;2.77;;;;;;;;;;5071520;28;20274;-55
2023/08/02 06:16:12;;;;;;;8.53;2.87;;;;;;;;;;5071653;28;20253;-55
2023/08/02 06:18:39;;;;;;;8.07;2.90;;;;;;;;;;5069822;28;20208;-55
2023/08/02 06:21:06;;;;;;;8.73;2.97;;;;;;;;;;5051712;28;20196;-55
2023/08/02 06:23:32;;;;;;;7.17;3.13;;;;;;;;;;5051502;28;20234;-56
2023/08/02 06:25:58;;;;;;;5.40;2.50;;;;;;;;;;5051653;28;20245;-55
2023/08/02 06:28:25;;;;;;;3.07;2.57;;;;;;;;;;5051629;28;20204;-54
2023/08/02 06:30:51;;;;;;;6.57;2.87;;;;;;;;;;5051444;28;20294;-54
2023/08/02 06:33:17;;;;;;;5.47;2.53;;;;;;;;;;5051458;28;20181;-54
2023/08/02 06:35:43;;;;;;;7.40;2.77;;;;;;;;;;5051519;28;20211;-54
2023/08/02 06:38:09;;;;;;;4.73;2.33;;;;;;;;;;5051836;28;20279;-55
2023/08/02 06:40:35;;;;;;;4.63;2.70;;;;;;;;;;5051289;28;20273;-55
2023/08/02 06:43:01;;;;;;;4.80;2.40;;;;;;;;;;5051403;28;20278;-54
2023/08/02 06:45:28;;;;;;;4.77;2.60;;;;;;;;;;5051495;28;20189;-55
2023/08/02 06:48:00;;;;;;;6.23;2.97;;;;;;;;;;5051470;28;20225;-54
2023/08/02 06:50:26;;;;;;;4.73;3.17;;;;;;;;;;5051534;28;20228;-54
2023/08/02 06:52:52;;;;;;;5.10;2.73;;;;;;;;;;5051230;28;20646;-54
2023/08/02 06:55:19;;;;;;;4.17;2.70;;;;;;;;;;5051202;28;20207;-54
2023/08/02 06:57:45;;;;;;;3.83;2.73;;;;;;;;;;5051352;28;20299;-54
2023/08/02 07:00:11;;;;;;;4.20;3.10;;;;;;;;;;5051367;28;20280;-54
2023/08/02 07:02:39;;;;;;;5.70;2.97;;;;;;;;;;5051091;28;20232;-54
2023/08/02 07:05:05;;;;;;;4.33;2.67;;;;;;;;;;5051323;28;20308;-54
2023/08/02 07:07:31;;;;;;;5.07;3.40;;;;;;;;;;5051167;28;20239;-54
2023/08/02 07:09:57;;;;;;;8.00;3.57;;;;;;;;;;5051292;28;20196;-54
2023/08/02 07:12:23;;;;;;;5.57;3.33;;;;;;;;;;5051350;28;20256;-54
2023/08/02 07:14:49;;;;;;;4.33;3.30;;;;;;;;;;5055005;28;20762;-54
2023/08/02 07:17:15;;;;;;;4.93;3.00;;;;;;;;;;5055271;28;20209;-54
2023/08/02 07:19:42;;;;;;;5.07;3.20;;;;;;;;;;5055096;28;20201;-54
2023/08/02 07:22:09;;;;;;;5.13;3.27;;;;;;;;;;5054998;28;20203;-57
2023/08/02 07:24:35;;;;;;;5.80;3.20;;;;;;;;;;5052880;28;20234;-55
2023/08/02 07:27:01;;;;;;;4.73;2.80;;;;;;;;;;5055122;28;20187;-53
2023/08/02 07:29:27;;;;;;;5.47;3.00;;;;;;;;;;5053580;28;20540;-53
2023/08/02 07:31:53;;;;;;;6.47;3.50;;;;;;;;;;5054975;28;20206;-54
2023/08/02 07:34:19;;;;;;;6.93;3.27;;;;;;;;;;5054769;28;20188;-53
2023/08/02 07:36:46;;;;;;;3.80;3.33;;;;;;;;;;5054707;28;20303;-54
2023/08/02 07:39:12;;;;;;;5.43;3.03;;;;;;;;;;5054766;28;20281;-54
2023/08/02 07:41:38;;;;;;;7.03;3.17;;;;;;;;;;5054592;28;20205;-54
2023/08/02 07:44:04;;;;;;;4.53;3.10;;;;;;;;;;5054496;28;20581;-56
2023/08/02 07:46:30;;;;;;;5.07;3.37;;;;;;;;;;5054537;28;20212;-54
2023/08/02 07:48:56;;;;;;;5.50;3.27;;;;;;;;;;5054736;28;20202;-55
2023/08/02 07:51:22;;;;;;;3.20;2.90;;;;;;;;;;5054586;28;20209;-55
2023/08/02 07:53:50;;;;;;;5.83;2.77;;;;;;;;;;5054442;28;20203;-54
2023/08/02 07:56:16;;;;;;;5.63;2.63;;;;;;;;;;5054441;28;20282;-55
2023/08/02 07:58:42;;;;;;;4.40;2.80;;;;;;;;;;5054473;28;20306;-55
2023/08/02 08:01:09;;;;;;;3.67;2.57;;;;;;;;;;5054411;28;20270;-55
2023/08/02 08:03:35;;;;;;;4.20;2.40;;;;;;;;;;5054182;28;20914;-55
2023/08/02 08:06:08;;;;;;;4.33;2.37;;;;;;;;;;5054488;28;20314;-56
2023/08/02 08:08:34;;;;;;;3.00;2.13;;;;;;;;;;5054179;28;20207;-55
2023/08/02 08:11:02;;;;;;;3.00;2.03;;;;;;;;;;5054219;28;20202;-55
2023/08/02 08:13:28;;;;;;;3.53;2.20;;;;;;;;;;5054228;28;20306;-54
2023/08/02 08:15:54;;;;;;;3.70;2.30;;;;;;;;;;5052231;28;20206;-54
2023/08/02 08:18:20;;;;;;;5.77;2.40;;;;;;;;;;5054067;28;20544;-54
2023/08/02 08:20:46;;;;;;;4.07;2.47;;;;;;;;;;5053729;28;20199;-59
2023/08/02 08:23:12;;;;;;;5.00;2.87;;;;;;;;;;5053916;28;20286;-54
2023/08/02 08:25:38;;;;;;;4.20;2.23;;;;;;;;;;5052739;28;20265;-54
2023/08/02 08:28:05;;;;;;;3.47;2.10;;;;;;;;;;5054041;28;20227;-54
2023/08/02 08:30:31;;;;;;;4.30;2.30;;;;;;;;;;5053551;28;20317;-55
2023/08/02 08:32:57;;;;;;;5.30;2.33;;;;;;;;;;5050080;28;20529;-54
2023/08/02 08:35:23;;;;;;;7.00;2.37;;;;;;;;;;5053103;28;20651;-55
2023/08/02 08:37:52;;;;;;;3.57;2.10;;;;;;;;;;5053267;28;20570;-55
2023/08/02 08:40:18;;;;;;;2.73;1.87;;;;;;;;;;5053283;28;20247;-55
2023/08/02 08:42:48;;;;;;;2.27;1.87;;;;;;;;;;5053304;28;20221;-55
2023/08/02 08:45:17;;;;;;;3.90;2.00;;;;;;;;;;5053367;28;20250;-55
2023/08/02 08:47:45;;;;;;;3.37;2.00;;;;;;;;;;5053392;28;20204;-55
2023/08/02 08:50:11;;;;;;;3.37;2.13;;;;;;;;;;5053455;28;20234;-55
2023/08/02 08:52:40;;;;;;;2.83;1.80;;;;;;;;;;5053198;28;20198;-55
2023/08/02 08:55:07;;;;;;;4.97;1.97;;;;;;;;;;5053029;28;20688;-54
2023/08/02 08:57:33;;;;;;;3.20;2.00;;;;;;;;;;5052957;28;20290;-54
2023/08/02 09:00:00;;;;;;;3.47;2.00;;;;;;;;;;5052918;28;20579;-54
2023/08/02 09:02:29;;;;;;;2.90;2.00;;;;;;;;;;5053062;28;20223;-54
2023/08/02 09:04:56;;;;;;;3.73;2.20;;;;;;;;;;5052935;28;20621;-55
2023/08/02 09:07:22;;;;;;;2.53;2.00;;;;;;;;;;5052916;28;20202;-55
2023/08/02 09:09:48;;;;;;;3.30;2.00;;;;;;;;;;5052659;28;20210;-55
2023/08/02 09:12:14;;;;;;;2.40;2.00;;;;;;;;;;5052733;28;20202;-56
2023/08/02 09:14:58;;;;;;;3.30;1.90;;;;;;;;;;5052752;28;20196;-55
2023/08/02 09:17:24;;;;;;;4.47;2.10;;;;;;;;;;5052441;28;20203;-55
2023/08/02 09:19:51;;;;;;;5.63;2.07;;;;;;;;;;5048975;28;20245;-56
2023/08/02 09:22:17;;;;;;;2.20;2.00;;;;;;;;;;5052630;28;20234;-53
2023/08/02 09:24:45;;;;;;;2.67;1.80;;;;;;;;;;5052563;28;20224;-57
2023/08/02 09:27:13;;;;;;;3.97;1.90;;;;;;;;;;5052564;28;20199;-54
2023/08/02 09:29:43;;;;;;;4.37;2.10;;;;;;;;;;5052367;28;20200;-54
2023/08/02 09:32:10;;;;;;;4.43;2.30;;;;;;;;;;5052492;28;20202;-54
2023/08/02 09:34:41;;;;;;;2.23;2.00;;;;;;;;;;5052194;28;20572;-54
2023/08/02 09:37:11;;;;;;;3.73;2.40;;;;;;;;;;5052472;28;20202;-54
2023/08/02 09:39:37;;;;;;;3.63;2.30;;;;;;;;;;5052065;28;20712;-54
2023/08/02 09:42:08;;;;;;;3.50;2.33;;;;;;;;;;5052261;28;20252;-52
2023/08/02 09:44:34;;;;;;;3.07;1.93;;;;;;;;;;5051894;28;20213;-52
2023/08/02 09:47:08;;;;;;;2.53;2.00;;;;;;;;;;5052085;28;20190;-52
2023/08/02 09:49:34;;;;;;;3.30;2.40;;;;;;;;;;5051821;28;20659;-55
2023/08/02 09:52:00;;;;;;;3.00;2.27;;;;;;;;;;5051966;28;20200;-52
2023/08/02 09:54:29;;;;;;;5.63;2.57;;;;;;;;;;5051960;28;20591;-55
2023/08/02 09:56:55;;;;;;;3.63;2.40;;;;;;;;;;5051812;28;20230;-53
2023/08/02 09:59:22;;;;;;;4.43;2.27;;;;;;;;;;5051687;28;20195;-55
2023/08/02 10:01:48;;;;;;;3.77;2.53;;;;;;;;;;5051490;28;20202;-55
2023/08/02 10:04:15;;;;;;;5.50;2.90;;;;;;;;;;5051676;28;20264;-53
2023/08/02 10:06:44;;;;;;;2.97;2.47;;;;;;;;;;5051844;28;20194;-55
2023/08/02 10:09:11;;;;;;;5.33;2.60;;;;;;;;;;5049835;28;20241;-54
2023/08/02 10:11:44;;;;;;;3.40;2.43;;;;;;;;;;5051738;28;20203;-54
2023/08/02 10:14:10;;;;;;;3.00;2.70;;;;;;;;;;5051822;28;20206;-53
2023/08/02 10:16:37;;;;;;;3.53;2.40;;;;;;;;;;5051730;28;20198;-53
2023/08/02 10:19:04;;;;;;;3.87;2.70;;;;;;;;;;5051265;28;20208;-54
2023/08/02 10:21:33;;;;;;;3.57;2.73;;;;;;;;;;5051621;28;20192;-54
2023/08/02 10:24:00;;;;;;;4.60;2.77;;;;;;;;;;5051382;28;20236;-53
2023/08/02 10:26:26;;;;;;;3.80;3.03;;;;;;;;;;5051702;28;20213;-54
2023/08/02 10:28:54;;;;;;;4.50;2.60;;;;;;;;;;5051241;28;20243;-53
2023/08/02 10:31:20;;;;;;;5.10;2.90;;;;;;;;;;5051342;28;20204;-54
2023/08/02 10:33:46;;;;;;;4.77;2.90;;;;;;;;;;5051096;28;20207;-54
2023/08/02 10:36:12;;;;;;;4.70;3.00;;;;;;;;;;5051450;28;20255;-54
2023/08/02 10:38:48;;;;;;;4.47;3.30;;;;;;;;;;5050360;28;20292;-55
2023/08/02 10:41:15;;;;;;;6.63;3.83;;;;;;;;;;5051177;28;20208;-52
2023/08/02 10:43:57;;;;;;;4.07;3.37;;;;;;;;;;5051129;28;20235;-54
2023/08/02 10:46:26;;;;;;;3.93;3.17;;;;;;;;;;5051126;28;20204;-53
2023/08/02 10:48:52;;;;;;;5.40;3.60;;;;;;;;;;5050821;28;20218;-55
2023/08/02 10:51:31;;;;;;;5.67;3.87;;;;;;;;;;5051309;28;20228;-54
2023/08/02 10:54:11;;;;;;;6.80;4.00;;;;;;;;;;5051064;28;20254;-53
2023/08/02 10:56:49;;;;;;;4.47;3.50;;;;;;;;;;5050939;28;20211;-53
2023/08/02 10:59:15;;;;;;;6.77;4.10;;;;;;;;;;5051143;28;20198;-53
2023/08/02 11:01:55;;;;;;;4.93;3.90;;;;;;;;;;5050958;28;20211;-52
2023/08/02 11:04:21;;;;;;;6.17;4.37;;;;;;;;;;5051036;28;20224;-52
2023/08/02 11:06:47;;;;;;;5.43;3.93;;;;;;;;;;5051135;28;20203;-53
2023/08/02 11:09:13;;;;;;;5.70;4.47;;;;;;;;;;5050918;28;20287;-53
2023/08/02 11:11:39;;;;;;;4.40;4.00;;;;;;;;;;5051212;28;20650;-53
2023/08/02 11:14:05;;;;;;;5.70;4.30;;;;;;;;;;5051057;28;20262;-53
2023/08/02 11:16:31;;;;;;;5.27;3.77;;;;;;;;;;5050929;28;20205;-53
2023/08/02 11:18:59;;;;;;;5.37;3.87;;;;;;;;;;5051291;28;20239;-53
2023/08/02 11:21:25;;;;;;;4.87;4.00;;;;;;;;;;5051122;28;20565;-53
2023/08/02 11:23:58;;;;;;;4.57;3.93;;;;;;;;;;5050709;28;20709;-53
2023/08/02 11:26:24;;;;;;;5.63;3.73;;;;;;;;;;5058995;28;20576;-51
2023/08/02 11:28:52;;;;;;;4.00;3.47;;;;;;;;;;5070347;28;20205;-51
2023/08/02 11:31:18;;;;;;;3.93;3.53;;;;;;;;;;5070684;28;20205;-51
2023/08/02 11:33:45;;;;;;;4.43;3.63;;;;;;;;;;5070702;28;20735;-52
2023/08/02 11:36:12;;;;;;;4.40;3.57;;;;;;;;;;5070938;28;20199;-51
2023/08/02 11:38:38;;;;;;;4.87;3.50;;;;;;;;;;5070563;28;20228;-52
2023/08/02 11:41:15;;;;;;;4.80;4.30;;;;;;;;;;5070659;28;20215;-53
2023/08/02 11:43:42;;;;;;;3.93;3.53;;;;;;;;;;5070105;28;20265;-52
2023/08/02 11:46:15;;;;;;;4.50;3.40;;;;;;;;;;5070381;28;20307;-52
2023/08/02 11:48:41;;;;;;;4.90;3.50;;;;;;;;;;5070427;28;20197;-53
2023/08/02 11:51:08;;;;;;;3.70;3.40;;;;;;;;;;5070720;28;20202;-52
2023/08/02 11:53:35;;;;;;;3.40;3.10;;;;;;;;;;5070321;28;20245;-52
2023/08/02 11:56:02;;;;;;;3.97;3.37;;;;;;;;;;5070471;28;20209;-52
2023/08/02 11:58:28;;;;;;;6.87;3.27;;;;;;;;;;5070781;28;20203;-52
2023/08/02 12:00:54;;;;;;;3.87;3.20;;;;;;;;;;5072732;28;20201;-52
2023/08/02 12:03:20;;;;;;;4.30;3.20;;;;;;;;;;5074246;28;20228;-52
2023/08/02 12:05:46;;;;;;;4.00;3.60;;;;;;;;;;5073690;28;20212;-52
2023/08/02 12:08:13;;;;;;;4.07;3.10;;;;;;;;;;5074266;28;20201;-52
2023/08/02 12:10:41;;;;;;;3.53;3.23;;;;;;;;;;5073832;28;20193;-53
2023/08/02 12:13:07;;;;;;;3.53;2.83;;;;;;;;;;5074267;28;20205;-53
2023/08/02 12:15:34;;;;;;;4.20;3.07;;;;;;;;;;5073872;28;20621;-53
2023/08/02 12:18:03;;;;;;;2.97;2.77;;;;;;;;;;5073510;28;20200;-51
2023/08/02 12:20:29;;;;;;;4.27;3.43;;;;;;;;;;5073851;28;20201;-54
2023/08/02 12:22:55;;;;;;;3.10;2.90;;;;;;;;;;5073662;28;20262;-54
2023/08/02 12:25:22;;;;;;;5.20;2.60;;;;;;;;;;5073502;28;20253;-54
2023/08/02 12:28:03;;;;;;;3.90;3.20;;;;;;;;;;5073682;28;20279;-54
2023/08/02 12:30:30;;;;;;;2.70;2.50;;;;;;;;;;5071827;28;20230;-54
2023/08/02 12:32:57;;;;;;;3.10;2.53;;;;;;;;;;5071966;28;20202;-53
2023/08/02 12:35:23;;;;;;;3.53;2.70;;;;;;;;;;5073869;28;20205;-53
2023/08/02 12:37:50;;;;;;;3.10;2.80;;;;;;;;;;5073602;28;20194;-53
2023/08/02 12:40:16;;;;;;;4.53;3.83;;;;;;;;;;5073562;28;20237;-53
2023/08/02 12:42:42;;;;;;;5.00;2.60;;;;;;;;;;5073303;28;20254;-53
2023/08/02 12:45:09;;;;;;;3.00;2.63;;;;;;;;;;5073289;28;20677;-53
2023/08/02 12:47:36;;;;;;;2.80;2.60;;;;;;;;;;5073308;28;20203;-54
2023/08/02 12:50:02;;;;;;;3.07;2.77;;;;;;;;;;5073375;28;20610;-54
2023/08/02 12:52:28;;;;;;;3.10;2.77;;;;;;;;;;5073382;28;20571;-54
2023/08/02 12:54:56;;;;;;;3.10;2.83;;;;;;;;;;5073603;28;20231;-54
2023/08/02 12:57:22;;;;;;;3.27;3.00;;;;;;;;;;5066238;28;21058;-55
2023/08/02 12:59:48;;;;;;;3.40;3.10;;;;;;;;;;5063799;28;20204;-56
2023/08/02 13:02:14;;;;;;;3.10;2.90;;;;;;;;;;5053356;28;20681;-54
2023/08/02 13:04:41;;;;;;;3.47;3.17;;;;;;;;;;5053365;28;20220;-55
2023/08/02 13:07:07;;;;;;;3.90;3.60;;;;;;;;;;5053239;28;20204;-55
2023/08/02 13:09:34;;;;;;;6.60;3.70;;;;;;;;;;5053060;28;20227;-56
2023/08/02 13:12:00;;;;;;;4.47;3.83;;;;;;;;;;5052583;28;20705;-55
2023/08/02 13:14:27;;;;;;;4.20;3.80;;;;;;;;;;5053111;28;20697;-54
2023/08/02 13:16:53;;;;;;;4.40;4.00;;;;;;;;;;5052859;28;20198;-55
2023/08/02 13:19:19;;;;;;;5.73;3.80;;;;;;;;;;5053029;28;20733;-55
2023/08/02 13:21:46;;;;;;;4.57;3.83;;;;;;;;;;5052507;28;20271;-55
2023/08/02 13:24:12;;;;;;;5.97;3.73;;;;;;;;;;5053102;28;20234;-55
2023/08/02 13:26:41;;;;;;;4.17;3.57;;;;;;;;;;5053018;28;20260;-55
2023/08/02 13:29:07;;;;;;;4.03;3.50;;;;;;;;;;5052819;28;20284;-55
2023/08/02 13:31:33;;;;;;;4.30;3.90;;;;;;;;;;5052767;28;20687;-54
2023/08/02 13:33:59;;;;;;;4.17;3.77;;;;;;;;;;5052227;28;20204;-54
2023/08/02 13:36:25;;;;;;;4.20;3.90;;;;;;;;;;5052963;28;20287;-54
2023/08/02 13:38:52;;;;;;;4.53;4.00;;;;;;;;;;5052611;28;20236;-54
2023/08/02 13:41:18;;;;;;;5.13;4.03;;;;;;;;;;5052785;28;20205;-54
2023/08/02 13:43:44;;;;;;;5.80;3.93;;;;;;;;;;5052205;28;20309;-54
2023/08/02 13:46:10;;;;;;;3.90;3.60;;;;;;;;;;5052529;28;20223;-53
2023/08/02 13:48:36;;;;;;;4.30;3.53;;;;;;;;;;5052513;28;20198;-53
2023/08/02 13:51:02;;;;;;;4.37;3.70;;;;;;;;;;5052376;28;20250;-53
2023/08/02 13:53:28;;;;;;;4.17;3.50;;;;;;;;;;5052477;28;20212;-53
2023/08/02 13:55:56;;;;;;;3.60;3.30;;;;;;;;;;5068341;28;20204;-54
2023/08/02 13:58:24;;;;;;;5.33;4.80;;;;;;;;;;5072097;28;20206;-54
2023/08/02 14:00:50;;;;;;;3.43;2.97;;;;;;;;;;5072188;28;20199;-53
2023/08/02 14:03:16;;;;;;;3.67;3.23;;;;;;;;;;5072026;28;20236;-53
2023/08/02 14:05:44;;;;;;;3.30;3.00;;;;;;;;;;5072179;28;20197;-54
2023/08/02 14:08:10;;;;;;;3.40;3.10;;;;;;;;;;5072374;28;20195;-53
2023/08/02 14:10:36;;;;;;;3.97;3.57;;;;;;;;;;5071898;28;20209;-53
2023/08/02 14:13:03;;;;;;;3.43;3.23;;;;;;;;;;5069213;28;20663;-53
2023/08/02 14:15:29;;;;;;;3.73;3.40;;;;;;;;;;5069824;28;20211;-53
2023/08/02 14:17:55;;;;;;;3.50;3.20;;;;;;;;;;5066468;28;20721;-53
2023/08/02 14:20:21;;;;;;;3.73;2.97;;;;;;;;;;5072487;28;20201;-52
2023/08/02 14:22:47;;;;;;;3.90;3.60;;;;;;;;;;5071108;28;20197;-53
2023/08/02 14:25:13;;;;;;;3.10;2.80;;;;;;;;;;5068471;28;20704;-53
2023/08/02 14:27:40;;;;;;;3.80;3.50;;;;;;;;;;5071988;28;20207;-54
2023/08/02 14:30:08;;;;;;;5.37;3.27;;;;;;;;;;5072054;28;20222;-52
2023/08/02 14:32:34;;;;;;;4.17;2.90;;;;;;;;;;5071916;28;20201;-54
2023/08/02 14:35:00;;;;;;;3.87;2.60;;;;;;;;;;5071900;28;20342;-54
2023/08/02 14:37:26;;;;;;;4.17;2.50;;;;;;;;;;5072284;28;20269;-54
2023/08/02 14:39:52;;;;;;;3.73;3.43;;;;;;;;;;5071750;28;20241;-54